Time;durP1;ratioP1;P1;durP2;ratioP2;P2;SDS_P1;SDS_P2;PMS_P1;PMS_P2;Temp;Humidity;BMP_temperature;BMP_pressure;BME280_temperature;BME280_humidity;BME280_pressure;Samples;Min_cycle;Max_cycle;Signal;HPM_P1;HPM_P2
2021/12/19 00:00:02;;;;;;;;;;;;;;;;;;1004260;29;770;-28
2021/12/19 00:00:35;;;;;;;;;;;;;;;;;;1007276;29;1726;-28
2021/12/19 00:01:20;;;;;;;;;;;;;;;;;;1007251;29;1007;-29
2021/12/19 00:02:04;;;;;;;;;;;;;;;;;;1007358;29;1432;-28
2021/12/19 00:02:48;;;;;;;;;;;;;;;;;;1003508;29;1162;-28
2021/12/19 00:03:35;;;;;;;;;;;;;;;;;;1011817;29;1222;-28
2021/12/19 00:04:22;;;;;;;;;;;;;;;;;;1011313;29;991;-28
2021/12/19 00:09:15;;;;;;;;;;;;;;;;;;1007901;29;1063;-28
2021/12/19 00:09:46;;;;;;;;;;;;;;;;;;1007089;29;1395;-28
2021/12/19 00:10:17;;;;;;;;;;;;;;;;;;999405;29;1198;-28
2021/12/19 00:10:47;;;;;;;;;;;;;;;;;;996009;29;1320;-28
2021/12/19 00:11:19;;;;;;;;;;;;;;;;;;987303;30;1382;-28
2021/12/19 00:11:50;;;;;;;;;;;;;;;;;;988356;30;1183;-28
2021/12/19 00:12:20;;;;;;;;;;;;;;;;;;988841;29;1625;-28
2021/12/19 00:12:52;;;;;;;;;;;;;;;;;;995183;29;1458;-27
2021/12/19 00:13:25;;;;;;;;;;;;;;;;;;999634;29;1186;-28
2021/12/19 00:13:56;;;;;;;;;;;;;;;;;;999618;29;1043;-28
2021/12/19 00:14:27;;;;;;;;;;;;;;;;;;992182;29;1651;-28
2021/12/19 00:14:58;;;;;;;;;;;;;;;;;;992274;29;1033;-28
2021/12/19 00:15:28;;;;;;;;;;;;;;;;;;995887;29;1117;-27
2021/12/19 00:15:58;;;;;;;;;;;;;;;;;;999722;29;1067;-29
2021/12/19 00:16:29;;;;;;;;;;;;;;;;;;1006823;29;1982;-28
2021/12/19 00:17:00;;;;;;;;;;;;;;;;;;1011718;29;1068;-28
2021/12/19 00:17:30;;;;;;;;;;;;;;;;;;1002916;29;1004;-28
2021/12/19 00:18:01;;;;;;;;;;;;;;;;;;1003157;29;1387;-27
2021/12/19 00:18:31;;;;;;;;;;;;;;;;;;1003314;29;1164;-28
2021/12/19 00:19:03;;;;;;;;;;;;;;;;;;996104;29;945;-28
2021/12/19 00:19:33;;;;;;;;;;;;;;;;;;995813;29;1579;-28
2021/12/19 00:20:04;;;;;;;;;;;;;;;;;;989215;29;1326;-28
2021/12/19 00:20:35;;;;;;;;;;;;;;;;;;988493;29;1310;-28
2021/12/19 00:21:06;;;;;;;;;;;;;;;;;;995928;29;1137;-28
2021/12/19 00:21:36;;;;;;;;;;;;;;;;;;1000144;29;1039;-29
2021/12/19 00:22:08;;;;;;;;;;;;;;;;;;1002745;29;1445;-28
2021/12/19 00:22:38;;;;;;;;;;;;;;;;;;995862;29;1221;-28
2021/12/19 00:23:09;;;;;;;;;;;;;;;;;;988269;29;1077;-28
2021/12/19 00:23:40;;;;;;;;;;;;;;;;;;991925;29;1543;-28
2021/12/19 00:24:10;;;;;;;;;;;;;;;;;;992394;29;1054;-28
2021/12/19 00:24:41;;;;;;;;;;;;;;;;;;999347;29;1323;-28
2021/12/19 00:25:11;;;;;;;;;;;;;;;;;;1003182;29;1088;-28
2021/12/19 00:25:42;;;;;;;;;;;;;;;;;;1008006;29;1014;-26
2021/12/19 00:26:12;;;;;;;;;;;;;;;;;;1011476;29;1760;-29
2021/12/19 00:26:43;;;;;;;;;;;;;;;;;;1012209;29;975;-28
2021/12/19 00:27:14;;;;;;;;;;;;;;;;;;1011058;29;1348;-28
2021/12/19 00:27:45;;;;;;;;;;;;;;;;;;1007352;29;1040;-28
2021/12/19 00:28:15;;;;;;;;;;;;;;;;;;999618;29;1034;-28
2021/12/19 00:28:46;;;;;;;;;;;;;;;;;;998977;29;1487;-28
2021/12/19 00:29:17;;;;;;;;;;;;;;;;;;999636;29;1084;-28
2021/12/19 00:29:47;;;;;;;;;;;;;;;;;;1000085;29;1038;-28
2021/12/19 00:30:18;;;;;;;;;;;;;;;;;;1006903;29;1141;-28
2021/12/19 00:30:50;;;;;;;;;;;;;;;;;;1007509;29;1044;-28
2021/12/19 00:31:21;;;;;;;;;;;;;;;;;;1006990;29;1141;-27
2021/12/19 00:31:51;;;;;;;;;;;;;;;;;;1011082;29;1001;-28
2021/12/19 00:32:21;;;;;;;;;;;;;;;;;;1011382;29;1181;-26
2021/12/19 00:32:52;;;;;;;;;;;;;;;;;;1011725;29;1373;-28
2021/12/19 00:33:23;;;;;;;;;;;;;;;;;;1007355;29;1052;-28
2021/12/19 00:33:54;;;;;;;;;;;;;;;;;;1006967;29;1947;-28
2021/12/19 00:34:24;;;;;;;;;;;;;;;;;;1007283;29;1114;-34
2021/12/19 00:34:55;;;;;;;;;;;;;;;;;;1003408;29;1055;-29
2021/12/19 00:35:25;;;;;;;;;;;;;;;;;;1003183;29;1160;-28
2021/12/19 00:35:56;;;;;;;;;;;;;;;;;;1006903;29;1211;-28
2021/12/19 00:36:26;;;;;;;;;;;;;;;;;;1007043;29;1953;-28
2021/12/19 00:36:57;;;;;;;;;;;;;;;;;;1011203;29;956;-28
2021/12/19 00:37:27;;;;;;;;;;;;;;;;;;1011218;29;1129;-28
2021/12/19 00:37:58;;;;;;;;;;;;;;;;;;1011270;29;1093;-28
2021/12/19 00:38:28;;;;;;;;;;;;;;;;;;1011774;29;896;-28
2021/12/19 00:38:59;;;;;;;;;;;;;;;;;;1011721;29;1280;-28
2021/12/19 00:39:30;;;;;;;;;;;;;;;;;;1003282;29;1147;-28
2021/12/19 00:40:00;;;;;;;;;;;;;;;;;;1003741;29;1001;-28
2021/12/19 00:40:32;;;;;;;;;;;;;;;;;;1002833;29;1410;-28
2021/12/19 00:41:04;;;;;;;;;;;;;;;;;;1003856;29;1143;-28
2021/12/19 00:41:34;;;;;;;;;;;;;;;;;;1011593;29;975;-28
2021/12/19 00:42:08;;;;;;;;;;;;;;;;;;1011557;29;1015;-28
2021/12/19 00:42:38;;;;;;;;;;;;;;;;;;1011683;29;990;-28
2021/12/19 00:43:12;;;;;;;;;;;;;;;;;;1011448;29;1471;-29
2021/12/19 00:43:45;;;;;;;;;;;;;;;;;;1011813;29;1098;-28
2021/12/19 00:44:22;;;;;;;;;;;;;;;;;;1011732;29;1182;-28
2021/12/19 00:44:53;;;;;;;;;;;;;;;;;;1010942;29;1094;-28
2021/12/19 00:45:29;;;;;;;;;;;;;;;;;;1007280;29;1098;-28
2021/12/19 00:46:06;;;;;;;;;;;;;;;;;;1006849;29;1304;-28
2021/12/19 00:46:45;;;;;;;;;;;;;;;;;;1006780;29;977;-28
2021/12/19 00:47:16;;;;;;;;;;;;;;;;;;1009496;29;1283;-28
2021/12/19 00:47:47;;;;;;;;;;;;;;;;;;1011419;29;1137;-28
2021/12/19 00:48:17;;;;;;;;;;;;;;;;;;1007166;29;1003;-28
2021/12/19 00:48:49;;;;;;;;;;;;;;;;;;1007353;29;857;-28
2021/12/19 00:49:22;;;;;;;;;;;;;;;;;;1007358;29;1059;-28
2021/12/19 00:49:52;;;;;;;;;;;;;;;;;;1003489;29;944;-28
2021/12/19 00:50:24;;;;;;;;;;;;;;;;;;1003630;29;995;-28
2021/12/19 00:50:54;;;;;;;;;;;;;;;;;;1003588;29;1653;-29
2021/12/19 00:51:27;;;;;;;;;;;;;;;;;;1003488;29;1338;-29
2021/12/19 00:51:58;;;;;;;;;;;;;;;;;;1011912;29;1166;-28
2021/12/19 00:52:28;;;;;;;;;;;;;;;;;;1010590;29;1403;-28
2021/12/19 00:52:59;;;;;;;;;;;;;;;;;;1011128;29;1061;-28
2021/12/19 00:53:29;;;;;;;;;;;;;;;;;;1011216;29;1074;-28
2021/12/19 00:54:00;;;;;;;;;;;;;;;;;;1007087;29;1248;-28
2021/12/19 00:54:31;;;;;;;;;;;;;;;;;;1006687;29;1082;-28
2021/12/19 00:55:02;;;;;;;;;;;;;;;;;;1003329;29;1362;-28
2021/12/19 00:55:32;;;;;;;;;;;;;;;;;;1003409;29;1443;-27
2021/12/19 00:56:03;;;;;;;;;;;;;;;;;;1007518;29;1004;-28
2021/12/19 00:56:34;;;;;;;;;;;;;;;;;;1006685;29;1907;-29
2021/12/19 00:57:04;;;;;;;;;;;;;;;;;;1007225;29;952;-28
2021/12/19 00:57:35;;;;;;;;;;;;;;;;;;1007267;29;1003;-29
2021/12/19 00:58:06;;;;;;;;;;;;;;;;;;1007410;29;1091;-28
2021/12/19 00:58:36;;;;;;;;;;;;;;;;;;999538;29;1039;-28
2021/12/19 00:59:07;;;;;;;;;;;;;;;;;;999428;29;1029;-28
2021/12/19 00:59:38;;;;;;;;;;;;;;;;;;995299;29;1056;-26
2021/12/19 01:00:09;;;;;;;;;;;;;;;;;;996084;29;1003;-28
2021/12/19 01:00:40;;;;;;;;;;;;;;;;;;999751;29;971;-28
2021/12/19 01:01:12;;;;;;;;;;;;;;;;;;1003291;29;1036;-28
2021/12/19 01:01:43;;;;;;;;;;;;;;;;;;1003642;29;1007;-28
2021/12/19 01:02:14;;;;;;;;;;;;;;;;;;1007393;29;956;-28
2021/12/19 01:02:45;;;;;;;;;;;;;;;;;;1006899;29;1194;-28
2021/12/19 01:03:16;;;;;;;;;;;;;;;;;;999607;29;1309;-28
2021/12/19 01:03:48;;;;;;;;;;;;;;;;;;1004900;29;1016;-28
2021/12/19 01:04:19;;;;;;;;;;;;;;;;;;1007008;29;1378;-28
2021/12/19 01:04:49;;;;;;;;;;;;;;;;;;1007163;29;1122;-29
2021/12/19 01:05:20;;;;;;;;;;;;;;;;;;1007519;29;1240;-28
2021/12/19 01:05:52;;;;;;;;;;;;;;;;;;1009815;29;939;-28
2021/12/19 01:06:22;;;;;;;;;;;;;;;;;;1012042;29;971;-28
2021/12/19 01:06:53;;;;;;;;;;;;;;;;;;1011777;29;1356;-27
2021/12/19 01:07:24;;;;;;;;;;;;;;;;;;1011609;29;1103;-28
2021/12/19 01:07:54;;;;;;;;;;;;;;;;;;1011856;29;1091;-28
2021/12/19 01:08:25;;;;;;;;;;;;;;;;;;1011550;29;1713;-28
2021/12/19 01:08:55;;;;;;;;;;;;;;;;;;1011790;29;1039;-28
2021/12/19 01:09:26;;;;;;;;;;;;;;;;;;1011982;29;1763;-29
2021/12/19 01:09:57;;;;;;;;;;;;;;;;;;1011314;29;1256;-28
2021/12/19 01:10:27;;;;;;;;;;;;;;;;;;1012062;29;887;-28
2021/12/19 01:10:58;;;;;;;;;;;;;;;;;;1006921;29;1369;-28
2021/12/19 01:11:29;;;;;;;;;;;;;;;;;;1007196;29;1247;-28
2021/12/19 01:11:59;;;;;;;;;;;;;;;;;;995774;29;1028;-28
2021/12/19 01:12:31;;;;;;;;;;;;;;;;;;987566;30;1252;-27
2021/12/19 01:13:02;;;;;;;;;;;;;;;;;;984579;30;1022;-28
2021/12/19 01:13:32;;;;;;;;;;;;;;;;;;985378;29;1089;-28
2021/12/19 01:14:04;;;;;;;;;;;;;;;;;;996382;29;999;-28
2021/12/19 01:14:34;;;;;;;;;;;;;;;;;;1007298;29;935;-28
2021/12/19 01:15:06;;;;;;;;;;;;;;;;;;1011491;29;1611;-28
2021/12/19 01:15:37;;;;;;;;;;;;;;;;;;1011853;29;1002;-28
2021/12/19 01:16:08;;;;;;;;;;;;;;;;;;1011275;29;1121;-28
2021/12/19 01:16:38;;;;;;;;;;;;;;;;;;1010131;29;2117;-28
2021/12/19 01:17:09;;;;;;;;;;;;;;;;;;1007031;29;1104;-28
2021/12/19 01:17:39;;;;;;;;;;;;;;;;;;1007075;29;1132;-28
2021/12/19 01:18:10;;;;;;;;;;;;;;;;;;1006851;29;1002;-29
2021/12/19 01:18:40;;;;;;;;;;;;;;;;;;1007447;29;947;-29
2021/12/19 01:19:11;;;;;;;;;;;;;;;;;;1011055;29;990;-28
2021/12/19 01:19:42;;;;;;;;;;;;;;;;;;1011271;29;1094;-28
2021/12/19 01:20:14;;;;;;;;;;;;;;;;;;1003259;29;1145;-28
2021/12/19 01:20:45;;;;;;;;;;;;;;;;;;1002838;29;960;-28
2021/12/19 01:21:16;;;;;;;;;;;;;;;;;;999768;29;1047;-28
2021/12/19 01:21:46;;;;;;;;;;;;;;;;;;1000233;29;1267;-27
2021/12/19 01:22:16;;;;;;;;;;;;;;;;;;1011722;29;1078;-27
2021/12/19 01:22:48;;;;;;;;;;;;;;;;;;1011902;29;887;-28
2021/12/19 01:23:18;;;;;;;;;;;;;;;;;;1014777;29;1064;-28
2021/12/19 01:23:49;;;;;;;;;;;;;;;;;;1007105;29;1044;-28
2021/12/19 01:24:20;;;;;;;;;;;;;;;;;;999478;29;1513;-28
2021/12/19 01:24:50;;;;;;;;;;;;;;;;;;999284;29;1016;-28
2021/12/19 01:25:20;;;;;;;;;;;;;;;;;;995864;29;1232;-28
2021/12/19 01:25:51;;;;;;;;;;;;;;;;;;1003025;29;1293;-28
2021/12/19 01:26:22;;;;;;;;;;;;;;;;;;1011119;29;1020;-28
2021/12/19 01:26:53;;;;;;;;;;;;;;;;;;1006928;29;1054;-28
2021/12/19 01:27:23;;;;;;;;;;;;;;;;;;1006868;29;1263;-28
2021/12/19 01:27:54;;;;;;;;;;;;;;;;;;1007166;29;1091;-28
2021/12/19 01:28:26;;;;;;;;;;;;;;;;;;1002818;29;1320;-28
2021/12/19 01:28:57;;;;;;;;;;;;;;;;;;1002806;29;1087;-27
2021/12/19 01:29:27;;;;;;;;;;;;;;;;;;1003388;29;1135;-28
2021/12/19 01:29:58;;;;;;;;;;;;;;;;;;1002619;29;1313;-28
2021/12/19 01:30:28;;;;;;;;;;;;;;;;;;999175;29;1343;-28
2021/12/19 01:30:59;;;;;;;;;;;;;;;;;;999610;29;841;-28
2021/12/19 01:31:29;;;;;;;;;;;;;;;;;;1003308;29;1119;-28
2021/12/19 01:32:00;;;;;;;;;;;;;;;;;;1003457;29;1178;-28
2021/12/19 01:32:31;;;;;;;;;;;;;;;;;;1007872;29;813;-29
2021/12/19 01:33:02;;;;;;;;;;;;;;;;;;1007944;29;888;-29
2021/12/19 01:33:32;;;;;;;;;;;;;;;;;;1007939;29;971;-28
2021/12/19 01:34:03;;;;;;;;;;;;;;;;;;1006731;29;1525;-29
2021/12/19 01:34:33;;;;;;;;;;;;;;;;;;1007136;29;1185;-28
2021/12/19 01:35:06;;;;;;;;;;;;;;;;;;1006695;29;1282;-28
2021/12/19 01:35:36;;;;;;;;;;;;;;;;;;1001591;29;1083;-27
2021/12/19 01:36:07;;;;;;;;;;;;;;;;;;999623;29;1092;-28
2021/12/19 01:36:37;;;;;;;;;;;;;;;;;;999156;29;1974;-28
2021/12/19 01:37:07;;;;;;;;;;;;;;;;;;999367;29;1117;-28
2021/12/19 01:37:38;;;;;;;;;;;;;;;;;;1003875;29;1347;-27
2021/12/19 01:38:08;;;;;;;;;;;;;;;;;;1003904;29;1222;-28
2021/12/19 01:38:39;;;;;;;;;;;;;;;;;;1004101;29;956;-28
2021/12/19 01:39:10;;;;;;;;;;;;;;;;;;1004063;29;816;-28
2021/12/19 01:39:41;;;;;;;;;;;;;;;;;;1004029;29;1032;-28
2021/12/19 01:40:13;;;;;;;;;;;;;;;;;;1003303;29;975;-28
2021/12/19 01:40:44;;;;;;;;;;;;;;;;;;998194;29;1418;-27
2021/12/19 01:41:15;;;;;;;;;;;;;;;;;;999420;29;1103;-28
2021/12/19 01:42:03;;;;;;;;;;;;;;;;;;999162;29;1119;-28
2021/12/19 01:42:35;;;;;;;;;;;;;;;;;;999955;29;845;-28
2021/12/19 01:43:06;;;;;;;;;;;;;;;;;;1006814;29;940;-28
2021/12/19 01:43:37;;;;;;;;;;;;;;;;;;1002537;29;1021;-28
2021/12/19 01:44:08;;;;;;;;;;;;;;;;;;1003304;29;1098;-28
2021/12/19 01:44:38;;;;;;;;;;;;;;;;;;1003273;29;1165;-29
2021/12/19 01:45:12;;;;;;;;;;;;;;;;;;995624;29;1025;-28
2021/12/19 01:45:42;;;;;;;;;;;;;;;;;;995347;29;956;-28
2021/12/19 01:46:12;;;;;;;;;;;;;;;;;;991696;29;1443;-28
2021/12/19 01:46:44;;;;;;;;;;;;;;;;;;992240;29;1115;-28
2021/12/19 01:47:15;;;;;;;;;;;;;;;;;;995547;29;1329;-28
2021/12/19 01:47:47;;;;;;;;;;;;;;;;;;1006951;29;1003;-28
2021/12/19 01:48:17;;;;;;;;;;;;;;;;;;1011050;29;1065;-28
2021/12/19 01:48:48;;;;;;;;;;;;;;;;;;1003021;29;1301;-28
2021/12/19 01:49:21;;;;;;;;;;;;;;;;;;1003191;29;1236;-28
2021/12/19 01:49:52;;;;;;;;;;;;;;;;;;999002;29;1226;-29
2021/12/19 01:50:22;;;;;;;;;;;;;;;;;;996526;29;1230;-28
2021/12/19 01:50:54;;;;;;;;;;;;;;;;;;1003844;29;1636;-29
2021/12/19 01:51:24;;;;;;;;;;;;;;;;;;1006818;29;1338;-25
2021/12/19 01:51:55;;;;;;;;;;;;;;;;;;1006470;29;1395;-28
2021/12/19 01:52:28;;;;;;;;;;;;;;;;;;1010745;29;1196;-28
2021/12/19 01:53:19;;;;;;;;;;;;;;;;;;1009564;29;1473;-28
2021/12/19 01:53:50;;;;;;;;;;;;;;;;;;997844;29;1623;-28
2021/12/19 01:54:21;;;;;;;;;;;;;;;;;;996896;29;1193;-28
2021/12/19 01:54:51;;;;;;;;;;;;;;;;;;995714;29;1034;-28
2021/12/19 01:55:22;;;;;;;;;;;;;;;;;;995768;29;1053;-28
2021/12/19 01:55:53;;;;;;;;;;;;;;;;;;995574;29;1665;-28
2021/12/19 01:56:23;;;;;;;;;;;;;;;;;;995711;29;1903;-29
2021/12/19 01:56:54;;;;;;;;;;;;;;;;;;995095;29;1307;-28
2021/12/19 01:57:25;;;;;;;;;;;;;;;;;;995622;29;1135;-28
2021/12/19 01:57:56;;;;;;;;;;;;;;;;;;999343;29;983;-28
2021/12/19 01:58:26;;;;;;;;;;;;;;;;;;999426;29;1070;-28
2021/12/19 01:58:57;;;;;;;;;;;;;;;;;;1003359;29;923;-28
2021/12/19 01:59:28;;;;;;;;;;;;;;;;;;1007061;29;1075;-29
2021/12/19 01:59:59;;;;;;;;;;;;;;;;;;1007189;29;996;-28
2021/12/19 02:00:33;;;;;;;;;;;;;;;;;;1007214;29;995;-31
2021/12/19 02:01:04;;;;;;;;;;;;;;;;;;1006457;29;1663;-29
2021/12/19 02:01:44;;;;;;;;;;;;;;;;;;1003993;29;976;-28
2021/12/19 02:02:15;;;;;;;;;;;;;;;;;;1004102;29;952;-29
2021/12/19 02:02:46;;;;;;;;;;;;;;;;;;994851;29;1256;-27
2021/12/19 02:03:16;;;;;;;;;;;;;;;;;;995347;29;1076;-26
2021/12/19 02:03:46;;;;;;;;;;;;;;;;;;995864;29;995;-29
2021/12/19 02:04:17;;;;;;;;;;;;;;;;;;995627;29;1593;-24
2021/12/19 02:04:48;;;;;;;;;;;;;;;;;;1001264;29;1193;-29
2021/12/19 02:05:18;;;;;;;;;;;;;;;;;;1003893;29;1125;-28
2021/12/19 02:05:49;;;;;;;;;;;;;;;;;;1003945;29;1174;-28
2021/12/19 02:06:19;;;;;;;;;;;;;;;;;;1003754;29;1015;-27
2021/12/19 02:06:55;;;;;;;;;;;;;;;;;;1003790;29;1155;-29
2021/12/19 02:07:28;;;;;;;;;;;;;;;;;;1007044;29;950;-28
2021/12/19 02:07:59;;;;;;;;;;;;;;;;;;1006823;29;1154;-28
2021/12/19 02:08:29;;;;;;;;;;;;;;;;;;1007149;29;1055;-27
2021/12/19 02:09:05;;;;;;;;;;;;;;;;;;1006512;29;1506;-28
2021/12/19 02:09:36;;;;;;;;;;;;;;;;;;1007176;29;1006;-28
2021/12/19 02:10:09;;;;;;;;;;;;;;;;;;1006996;29;1045;-27
2021/12/19 02:10:41;;;;;;;;;;;;;;;;;;1007065;29;904;-28
2021/12/19 02:11:13;;;;;;;;;;;;;;;;;;1004573;29;1258;-28
2021/12/19 02:11:45;;;;;;;;;;;;;;;;;;999411;29;1400;-28
2021/12/19 02:12:16;;;;;;;;;;;;;;;;;;1003260;29;949;-28
2021/12/19 02:12:48;;;;;;;;;;;;;;;;;;1003259;29;1108;-28
2021/12/19 02:13:18;;;;;;;;;;;;;;;;;;998947;29;1358;-28
2021/12/19 02:13:49;;;;;;;;;;;;;;;;;;999326;29;1082;-28
2021/12/19 02:14:20;;;;;;;;;;;;;;;;;;1002695;29;1222;-28
2021/12/19 02:14:50;;;;;;;;;;;;;;;;;;1003235;29;972;-29
2021/12/19 02:15:22;;;;;;;;;;;;;;;;;;1003108;29;1039;-28
2021/12/19 02:15:53;;;;;;;;;;;;;;;;;;1001789;29;1648;-28
2021/12/19 02:16:24;;;;;;;;;;;;;;;;;;995364;29;1980;-29
2021/12/19 02:16:54;;;;;;;;;;;;;;;;;;995578;29;1438;-29
2021/12/19 02:17:25;;;;;;;;;;;;;;;;;;1002919;29;1450;-28
2021/12/19 02:18:15;;;;;;;;;;;;;;;;;;999494;29;1112;-28
2021/12/19 02:18:46;;;;;;;;;;;;;;;;;;1001933;29;1235;-28
2021/12/19 02:19:17;;;;;;;;;;;;;;;;;;1006861;29;1523;-28
2021/12/19 02:19:48;;;;;;;;;;;;;;;;;;1004458;29;1154;-28
2021/12/19 02:20:20;;;;;;;;;;;;;;;;;;1003233;29;1004;-29
2021/12/19 02:20:55;;;;;;;;;;;;;;;;;;1003435;29;1106;-28
2021/12/19 02:21:25;;;;;;;;;;;;;;;;;;1007255;29;1502;-28
2021/12/19 02:21:55;;;;;;;;;;;;;;;;;;1007919;29;980;-28
2021/12/19 02:22:25;;;;;;;;;;;;;;;;;;1007548;29;1431;-27
2021/12/19 02:22:56;;;;;;;;;;;;;;;;;;1006851;29;1073;-27
2021/12/19 02:23:27;;;;;;;;;;;;;;;;;;1006965;29;1158;-28
2021/12/19 02:23:59;;;;;;;;;;;;;;;;;;1006715;29;1351;-29
2021/12/19 02:24:29;;;;;;;;;;;;;;;;;;1007081;29;1123;-28
2021/12/19 02:25:00;;;;;;;;;;;;;;;;;;1002992;29;1340;-29
2021/12/19 02:25:31;;;;;;;;;;;;;;;;;;999083;29;1016;-29
2021/12/19 02:26:01;;;;;;;;;;;;;;;;;;995535;29;1366;-29
2021/12/19 02:26:32;;;;;;;;;;;;;;;;;;995473;29;1366;-28
2021/12/19 02:27:03;;;;;;;;;;;;;;;;;;998920;29;1040;-28
2021/12/19 02:27:34;;;;;;;;;;;;;;;;;;995835;29;934;-28
2021/12/19 02:28:04;;;;;;;;;;;;;;;;;;998906;29;1710;-28
2021/12/19 02:28:35;;;;;;;;;;;;;;;;;;999447;29;1194;-28
2021/12/19 02:29:06;;;;;;;;;;;;;;;;;;1004083;29;1586;-28
2021/12/19 02:29:37;;;;;;;;;;;;;;;;;;1010948;29;987;-28
2021/12/19 02:30:08;;;;;;;;;;;;;;;;;;1010642;29;969;-28
2021/12/19 02:30:38;;;;;;;;;;;;;;;;;;1010977;29;1443;-28
2021/12/19 02:31:09;;;;;;;;;;;;;;;;;;1006942;29;1000;-28
2021/12/19 02:31:40;;;;;;;;;;;;;;;;;;1006888;29;1358;-28
2021/12/19 02:32:11;;;;;;;;;;;;;;;;;;998448;29;1313;-27
2021/12/19 02:32:42;;;;;;;;;;;;;;;;;;999421;29;1233;-29
2021/12/19 02:33:15;;;;;;;;;;;;;;;;;;1003137;29;1067;-28
2021/12/19 02:34:00;;;;;;;;;;;;;;;;;;1000370;29;882;-28
2021/12/19 02:34:37;;;;;;;;;;;;;;;;;;1006751;29;1788;-27
2021/12/19 02:35:13;;;;;;;;;;;;;;;;;;999221;29;984;-28
2021/12/19 02:35:50;;;;;;;;;;;;;;;;;;996109;29;1523;-28
2021/12/19 02:36:29;;;;;;;;;;;;;;;;;;999099;29;1979;-28
2021/12/19 02:37:07;;;;;;;;;;;;;;;;;;1001344;29;1545;-27
2021/12/19 02:48:16;;;;;;;;;;;;;;;;;;1007589;29;900;-28
2021/12/19 02:48:46;;;;;;;;;;;;;;;;;;1007532;29;1047;-28
2021/12/19 02:49:19;;;;;;;;;;;;;;;;;;1007104;29;963;-28
2021/12/19 02:49:49;;;;;;;;;;;;;;;;;;1006909;29;952;-28
2021/12/19 02:50:23;;;;;;;;;;;;;;;;;;1007121;29;912;-28
2021/12/19 02:50:54;;;;;;;;;;;;;;;;;;1007068;29;1529;-28
2021/12/19 02:51:30;;;;;;;;;;;;;;;;;;1007061;29;1070;-28
2021/12/19 02:52:01;;;;;;;;;;;;;;;;;;1007033;29;959;-28
2021/12/19 02:52:33;;;;;;;;;;;;;;;;;;1002908;29;1016;-28
2021/12/19 02:53:03;;;;;;;;;;;;;;;;;;1003053;29;1018;-28
2021/12/19 02:53:35;;;;;;;;;;;;;;;;;;1001916;29;1296;-28
2021/12/19 02:54:05;;;;;;;;;;;;;;;;;;999544;29;889;-28
2021/12/19 02:54:36;;;;;;;;;;;;;;;;;;1007349;29;1198;-28
2021/12/19 02:55:07;;;;;;;;;;;;;;;;;;1006753;29;1013;-28
2021/12/19 02:55:37;;;;;;;;;;;;;;;;;;1006971;29;923;-28
2021/12/19 02:56:09;;;;;;;;;;;;;;;;;;1007014;29;982;-28
2021/12/19 02:56:39;;;;;;;;;;;;;;;;;;1006657;29;1981;-28
2021/12/19 02:57:10;;;;;;;;;;;;;;;;;;1002918;29;1033;-28
2021/12/19 02:57:41;;;;;;;;;;;;;;;;;;1003819;29;957;-29
2021/12/19 02:58:11;;;;;;;;;;;;;;;;;;1007073;29;912;-28
2021/12/19 02:58:43;;;;;;;;;;;;;;;;;;1002945;29;1195;-28
2021/12/19 02:59:13;;;;;;;;;;;;;;;;;;998957;29;1385;-27
2021/12/19 02:59:44;;;;;;;;;;;;;;;;;;999100;29;1115;-27
2021/12/19 03:00:16;;;;;;;;;;;;;;;;;;999495;29;944;-29
2021/12/19 03:00:48;;;;;;;;;;;;;;;;;;1003348;29;971;-28
2021/12/19 03:01:20;;;;;;;;;;;;;;;;;;1006985;29;1004;-28
2021/12/19 03:01:50;;;;;;;;;;;;;;;;;;1006672;29;1206;-28
2021/12/19 03:02:22;;;;;;;;;;;;;;;;;;1006791;29;1019;-28
2021/12/19 03:02:52;;;;;;;;;;;;;;;;;;1006645;29;1669;-28
2021/12/19 03:03:23;;;;;;;;;;;;;;;;;;1006668;29;1054;-28
2021/12/19 03:03:53;;;;;;;;;;;;;;;;;;1007070;29;945;-28
2021/12/19 03:04:24;;;;;;;;;;;;;;;;;;1006560;29;1327;-28
2021/12/19 03:05:15;;;;;;;;;;;;;;;;;;1006784;29;1213;-28
2021/12/19 03:05:45;;;;;;;;;;;;;;;;;;1003655;29;1351;-28
2021/12/19 03:06:16;;;;;;;;;;;;;;;;;;1004170;29;1119;-28
2021/12/19 03:06:48;;;;;;;;;;;;;;;;;;1003096;29;1053;-28
2021/12/19 03:07:18;;;;;;;;;;;;;;;;;;1002957;29;1196;-28
2021/12/19 03:07:51;;;;;;;;;;;;;;;;;;995614;29;1144;-28
2021/12/19 03:08:21;;;;;;;;;;;;;;;;;;998811;29;1324;-26
2021/12/19 03:08:52;;;;;;;;;;;;;;;;;;991542;29;1351;-28
2021/12/19 03:09:46;;;;;;;;;;;;;;;;;;992442;29;957;-28
2021/12/19 03:12:09;;;;;;;;;;;;;;;;;;993598;29;1137;-28
2021/12/19 03:17:59;;;;;;;;;;;;;;;;;;1007527;29;825;-29
2021/12/19 03:18:30;;;;;;;;;;;;;;;;;;1007653;29;924;-28
2021/12/19 03:19:00;;;;;;;;;;;;;;;;;;1007597;29;781;-28
2021/12/19 03:19:31;;;;;;;;;;;;;;;;;;1007719;29;963;-28
2021/12/19 03:20:01;;;;;;;;;;;;;;;;;;1007610;29;977;-28
2021/12/19 03:20:33;;;;;;;;;;;;;;;;;;1007727;29;1023;-28
2021/12/19 03:21:03;;;;;;;;;;;;;;;;;;1011503;29;975;-28
2021/12/19 03:21:34;;;;;;;;;;;;;;;;;;1011527;29;999;-29
2021/12/19 03:22:05;;;;;;;;;;;;;;;;;;1011409;29;1107;-28
2021/12/19 03:22:36;;;;;;;;;;;;;;;;;;1011499;29;999;-28
2021/12/19 03:23:06;;;;;;;;;;;;;;;;;;1011385;29;883;-28
2021/12/19 03:23:37;;;;;;;;;;;;;;;;;;1011617;29;851;-30
2021/12/19 03:24:07;;;;;;;;;;;;;;;;;;1010943;29;1575;-28
2021/12/19 03:24:38;;;;;;;;;;;;;;;;;;1011297;29;1043;-28
2021/12/19 03:25:08;;;;;;;;;;;;;;;;;;1011420;29;945;-28
2021/12/19 03:25:39;;;;;;;;;;;;;;;;;;1011434;29;995;-28
2021/12/19 03:26:09;;;;;;;;;;;;;;;;;;1006550;29;1719;-29
2021/12/19 03:26:40;;;;;;;;;;;;;;;;;;1006989;29;946;-28
2021/12/19 03:27:11;;;;;;;;;;;;;;;;;;994836;29;1502;-28
2021/12/19 03:27:42;;;;;;;;;;;;;;;;;;995505;29;1019;-28
2021/12/19 03:28:13;;;;;;;;;;;;;;;;;;995272;29;1283;-28
2021/12/19 03:28:45;;;;;;;;;;;;;;;;;;999454;29;1008;-28
2021/12/19 03:29:15;;;;;;;;;;;;;;;;;;996195;29;1097;-28
2021/12/19 03:29:46;;;;;;;;;;;;;;;;;;995397;29;1091;-28
2021/12/19 03:30:16;;;;;;;;;;;;;;;;;;995457;29;1085;-28
2021/12/19 03:30:47;;;;;;;;;;;;;;;;;;994936;29;1573;-27
2021/12/19 03:31:18;;;;;;;;;;;;;;;;;;998755;29;1406;-28
2021/12/19 03:31:48;;;;;;;;;;;;;;;;;;995251;29;1003;-28
2021/12/19 03:32:19;;;;;;;;;;;;;;;;;;995242;29;1612;-27
2021/12/19 03:32:49;;;;;;;;;;;;;;;;;;991359;29;1704;-28
2021/12/19 03:33:20;;;;;;;;;;;;;;;;;;995554;29;1133;-28
2021/12/19 03:33:51;;;;;;;;;;;;;;;;;;993048;29;1306;-28
2021/12/19 03:34:21;;;;;;;;;;;;;;;;;;995343;29;1096;-29
2021/12/19 03:34:52;;;;;;;;;;;;;;;;;;1003460;29;1087;-29
2021/12/19 03:35:24;;;;;;;;;;;;;;;;;;1002991;29;1065;-28
2021/12/19 03:35:54;;;;;;;;;;;;;;;;;;1003705;29;1228;-28
2021/12/19 03:36:25;;;;;;;;;;;;;;;;;;998130;29;1899;-28
2021/12/19 03:36:55;;;;;;;;;;;;;;;;;;999315;29;1115;-28
2021/12/19 03:37:26;;;;;;;;;;;;;;;;;;1002760;29;1282;-28
2021/12/19 03:37:58;;;;;;;;;;;;;;;;;;1002819;29;1123;-28
2021/12/19 03:38:29;;;;;;;;;;;;;;;;;;1006889;29;1015;-28
2021/12/19 03:39:04;;;;;;;;;;;;;;;;;;1002882;29;1027;-28
2021/12/19 03:39:45;;;;;;;;;;;;;;;;;;1002121;29;1063;-28
2021/12/19 03:40:22;;;;;;;;;;;;;;;;;;999031;29;1023;-28
2021/12/19 03:41:07;;;;;;;;;;;;;;;;;;1000996;29;1305;-29
2021/12/19 03:41:38;;;;;;;;;;;;;;;;;;1003075;29;1237;-28
2021/12/19 03:42:08;;;;;;;;;;;;;;;;;;1003025;29;945;-28
2021/12/19 03:42:40;;;;;;;;;;;;;;;;;;1005008;29;1026;-28
2021/12/19 03:43:13;;;;;;;;;;;;;;;;;;1006892;29;1057;-29
2021/12/19 03:43:43;;;;;;;;;;;;;;;;;;1006976;29;942;-28
2021/12/19 03:44:13;;;;;;;;;;;;;;;;;;1006926;29;1358;-28
2021/12/19 03:44:44;;;;;;;;;;;;;;;;;;1002101;29;1194;-28
2021/12/19 03:45:20;;;;;;;;;;;;;;;;;;1003152;29;960;-28
2021/12/19 03:45:51;;;;;;;;;;;;;;;;;;995191;29;1097;-28
2021/12/19 03:46:21;;;;;;;;;;;;;;;;;;996042;29;1037;-28
2021/12/19 03:46:52;;;;;;;;;;;;;;;;;;991481;29;1172;-28
2021/12/19 03:47:22;;;;;;;;;;;;;;;;;;991350;29;1324;-28
2021/12/19 03:47:53;;;;;;;;;;;;;;;;;;999247;29;1211;-28
2021/12/19 03:48:23;;;;;;;;;;;;;;;;;;999200;29;1100;-28
2021/12/19 03:48:53;;;;;;;;;;;;;;;;;;1007572;29;1030;-28
2021/12/19 03:49:24;;;;;;;;;;;;;;;;;;1007613;29;912;-28
2021/12/19 03:49:54;;;;;;;;;;;;;;;;;;1007516;29;927;-28
2021/12/19 03:50:25;;;;;;;;;;;;;;;;;;1007616;29;939;-28
2021/12/19 03:50:55;;;;;;;;;;;;;;;;;;1006862;29;1045;-28
2021/12/19 03:51:26;;;;;;;;;;;;;;;;;;1006805;29;1031;-28
2021/12/19 03:51:56;;;;;;;;;;;;;;;;;;1006900;29;966;-28
2021/12/19 03:52:27;;;;;;;;;;;;;;;;;;1006566;29;1526;-28
2021/12/19 03:52:59;;;;;;;;;;;;;;;;;;1002896;29;1091;-28
2021/12/19 03:53:30;;;;;;;;;;;;;;;;;;995403;29;1105;-28
2021/12/19 03:54:01;;;;;;;;;;;;;;;;;;995123;29;1234;-28
2021/12/19 03:54:31;;;;;;;;;;;;;;;;;;995572;29;961;-28
2021/12/19 03:55:02;;;;;;;;;;;;;;;;;;995625;29;1583;-28
2021/12/19 03:55:33;;;;;;;;;;;;;;;;;;1003155;29;1573;-28
2021/12/19 03:56:03;;;;;;;;;;;;;;;;;;1002937;29;816;-28
2021/12/19 03:56:33;;;;;;;;;;;;;;;;;;1002674;29;2025;-28
2021/12/19 03:57:04;;;;;;;;;;;;;;;;;;1007050;29;1256;-28
2021/12/19 03:57:34;;;;;;;;;;;;;;;;;;1007313;29;1358;-28
2021/12/19 03:58:05;;;;;;;;;;;;;;;;;;1007147;29;1122;-28
2021/12/19 03:58:35;;;;;;;;;;;;;;;;;;1002988;29;1237;-28
2021/12/19 03:59:06;;;;;;;;;;;;;;;;;;1002825;29;1165;-28
2021/12/19 03:59:36;;;;;;;;;;;;;;;;;;1003224;29;903;-28
2021/12/19 04:00:09;;;;;;;;;;;;;;;;;;1002822;29;1257;-28
2021/12/19 04:00:42;;;;;;;;;;;;;;;;;;1006728;29;1266;-29
2021/12/19 04:01:12;;;;;;;;;;;;;;;;;;998649;29;1384;-28
2021/12/19 04:01:47;;;;;;;;;;;;;;;;;;998808;29;1492;-28
2021/12/19 04:02:24;;;;;;;;;;;;;;;;;;995465;29;1069;-28
2021/12/19 04:02:57;;;;;;;;;;;;;;;;;;999189;29;1408;-24
2021/12/19 04:03:29;;;;;;;;;;;;;;;;;;991259;29;1239;-27
2021/12/19 04:04:00;;;;;;;;;;;;;;;;;;991591;29;1134;-28